sensor_id;sensor_type;location;lat;lon;timestamp;pressure;altitude;pressure_sealevel;temperature;humidity
19789;BME280;10054;59.332;18.244;2023-10-31T00:00:01;99107.63;;;7.98;100.00
19789;BME280;10054;59.332;18.244;2023-10-31T00:02:31;99094.37;;;7.99;100.00
19789;BME280;10054;59.332;18.244;2023-10-31T00:05:00;99102.26;;;7.99;100.00
19789;BME280;10054;59.332;18.244;2023-10-31T00:07:28;99102.13;;;7.95;100.00
19789;BME280;10054;59.332;18.244;2023-10-31T00:09:57;99105.00;;;7.98;100.00
19789;BME280;10054;59.332;18.244;2023-10-31T00:12:26;99099.75;;;7.98;100.00
19789;BME280;10054;59.332;18.244;2023-10-31T00:14:55;99094.50;;;7.98;100.00
19789;BME280;10054;59.332;18.244;2023-10-31T00:17:23;99086.62;;;7.98;100.00
19789;BME280;10054;59.332;18.244;2023-10-31T00:19:52;99083.40;;;8.00;100.00
19789;BME280;10054;59.332;18.244;2023-10-31T00:22:21;99089.02;;;8.01;100.00
19789;BME280;10054;59.332;18.244;2023-10-31T00:24:50;99087.58;;;8.02;100.00
19789;BME280;10054;59.332;18.244;2023-10-31T00:27:19;99086.16;;;8.04;100.00
19789;BME280;10054;59.332;18.244;2023-10-31T00:29:49;99091.64;;;8.01;100.00
19789;BME280;10054;59.332;18.244;2023-10-31T00:32:17;99081.97;;;8.01;100.00
19789;BME280;10054;59.332;18.244;2023-10-31T00:34:46;99074.92;;;8.02;100.00
19789;BME280;10054;59.332;18.244;2023-10-31T00:37:15;99078.51;;;8.01;100.00
19789;BME280;10054;59.332;18.244;2023-10-31T00:39:43;99082.20;;;7.98;100.00
19789;BME280;10054;59.332;18.244;2023-10-31T00:42:12;99080.05;;;7.98;100.00
19789;BME280;10054;59.332;18.244;2023-10-31T00:44:42;99082.80;;;7.96;100.00
19789;BME280;10054;59.332;18.244;2023-10-31T00:47:11;99078.14;;;7.94;100.00
19789;BME280;10054;59.332;18.244;2023-10-31T00:49:39;99086.13;;;7.93;100.00
19789;BME280;10054;59.332;18.244;2023-10-31T00:52:08;99086.13;;;7.93;100.00
19789;BME280;10054;59.332;18.244;2023-10-31T00:54:38;99081.36;;;7.92;100.00
19789;BME280;10054;59.332;18.244;2023-10-31T00:57:07;99078.84;;;7.90;100.00
19789;BME280;10054;59.332;18.244;2023-10-31T00:59:35;99076.58;;;7.91;100.00
19789;BME280;10054;59.332;18.244;2023-10-31T01:02:05;99077.42;;;7.92;100.00
19789;BME280;10054;59.332;18.244;2023-10-31T01:04:35;99073.00;;;7.93;100.00
19789;BME280;10054;59.332;18.244;2023-10-31T01:07:05;99070.02;;;7.91;100.00
19789;BME280;10054;59.332;18.244;2023-10-31T01:09:35;99073.95;;;7.91;100.00
19789;BME280;10054;59.332;18.244;2023-10-31T01:12:04;99070.61;;;7.89;100.00
19789;BME280;10054;59.332;18.244;2023-10-31T01:14:33;99069.05;;;7.87;100.00
19789;BME280;10054;59.332;18.244;2023-10-31T01:17:02;99071.56;;;7.88;100.00
19789;BME280;10054;59.332;18.244;2023-10-31T01:19:31;99072.40;;;7.89;100.00
19789;BME280;10054;59.332;18.244;2023-10-31T01:22:00;99062.02;;;7.87;100.00
19789;BME280;10054;59.332;18.244;2023-10-31T01:24:29;99065.36;;;7.89;100.00
19789;BME280;10054;59.332;18.244;2023-10-31T01:26:58;99060.83;;;7.91;100.00
19789;BME280;10054;59.332;18.244;2023-10-31T01:29:26;99063.45;;;7.91;100.00
19789;BME280;10054;59.332;18.244;2023-10-31T01:31:55;99073.95;;;7.91;100.00
19789;BME280;10054;59.332;18.244;2023-10-31T01:34:24;99073.00;;;7.93;100.00
19789;BME280;10054;59.332;18.244;2023-10-31T01:36:53;99073.36;;;7.94;100.00
19789;BME280;10054;59.332;18.244;2023-10-31T01:39:22;99068.23;;;7.92;100.00
19789;BME280;10054;59.332;18.244;2023-10-31T01:41:51;99066.80;;;7.94;100.00
19789;BME280;10054;59.332;18.244;2023-10-31T01:44:21;99064.89;;;7.96;100.00
19789;BME280;10054;59.332;18.244;2023-10-31T01:46:52;99064.41;;;7.96;100.00
19789;BME280;10054;59.332;18.244;2023-10-31T01:49:22;99060.84;;;7.97;100.00
19789;BME280;10054;59.332;18.244;2023-10-31T01:51:51;99057.02;;;7.96;100.00
19789;BME280;10054;59.332;18.244;2023-10-31T01:54:20;99056.17;;;7.95;100.00
19789;BME280;10054;59.332;18.244;2023-10-31T01:56:49;99053.31;;;7.93;100.00
19789;BME280;10054;59.332;18.244;2023-10-31T01:59:19;99050.33;;;7.91;100.00
19789;BME280;10054;59.332;18.244;2023-10-31T02:01:49;99048.17;;;7.91;100.00
19789;BME280;10054;59.332;18.244;2023-10-31T02:04:18;99048.89;;;7.93;100.00
19789;BME280;10054;59.332;18.244;2023-10-31T02:06:48;99040.30;;;7.91;100.00
19789;BME280;10054;59.332;18.244;2023-10-31T02:09:19;99043.88;;;7.90;100.00
19789;BME280;10054;59.332;18.244;2023-10-31T02:11:50;99048.06;;;7.93;100.00
19789;BME280;10054;59.332;18.244;2023-10-31T02:14:19;99044.12;;;7.93;100.00
19789;BME280;10054;59.332;18.244;2023-10-31T02:16:48;99049.25;;;7.94;100.00
19789;BME280;10054;59.332;18.244;2023-10-31T02:19:19;99042.69;;;7.94;100.00
19789;BME280;10054;59.332;18.244;2023-10-31T02:21:48;99043.05;;;7.95;100.00
19789;BME280;10054;59.332;18.244;2023-10-31T02:24:17;99035.41;;;7.92;100.00
19789;BME280;10054;59.332;18.244;2023-10-31T02:26:46;99043.88;;;7.96;100.00
19789;BME280;10054;59.332;18.244;2023-10-31T02:29:15;99039.47;;;7.96;100.00
19789;BME280;10054;59.332;18.244;2023-10-31T02:31:44;99030.28;;;7.96;100.00
19789;BME280;10054;59.332;18.244;2023-10-31T02:34:14;99029.09;;;7.95;100.00
19789;BME280;10054;59.332;18.244;2023-10-31T02:36:43;99025.39;;;7.97;100.00
19789;BME280;10054;59.332;18.244;2023-10-31T02:39:12;99017.87;;;7.98;100.00
19789;BME280;10054;59.332;18.244;2023-10-31T02:41:40;99016.55;;;7.98;100.00
19789;BME280;10054;59.332;18.244;2023-10-31T02:44:09;99025.27;;;7.99;100.00
19789;BME280;10054;59.332;18.244;2023-10-31T02:46:38;99019.42;;;8.01;100.00
19789;BME280;10054;59.332;18.244;2023-10-31T02:49:07;99019.54;;;7.99;100.00
19789;BME280;10054;59.332;18.244;2023-10-31T02:51:37;99014.77;;;7.99;100.00
19789;BME280;10054;59.332;18.244;2023-10-31T02:54:06;99017.27;;;7.95;100.00
19789;BME280;10054;59.332;18.244;2023-10-31T02:56:35;99027.30;;;7.95;100.00
19789;BME280;10054;59.332;18.244;2023-10-31T02:59:04;99023.83;;;7.95;100.00
19789;BME280;10054;59.332;18.244;2023-10-31T03:01:34;99028.84;;;7.92;100.00
19789;BME280;10054;59.332;18.244;2023-10-31T03:04:04;99024.55;;;7.91;100.00
19789;BME280;10054;59.332;18.244;2023-10-31T03:06:33;99032.30;;;7.93;100.00
19789;BME280;10054;59.332;18.244;2023-10-31T03:09:01;99032.30;;;7.93;100.00
19789;BME280;10054;59.332;18.244;2023-10-31T03:11:30;99028.96;;;7.90;100.00
19789;BME280;10054;59.332;18.244;2023-10-31T03:14:00;99038.75;;;7.94;100.00
19789;BME280;10054;59.332;18.244;2023-10-31T03:16:29;99051.77;;;7.96;100.00
19789;BME280;10054;59.332;18.244;2023-10-31T03:18:57;99051.41;;;7.95;100.00
19789;BME280;10054;59.332;18.244;2023-10-31T03:21:28;99060.95;;;7.96;100.00
19789;BME280;10054;59.332;18.244;2023-10-31T03:23:58;99060.36;;;7.98;100.00
19789;BME280;10054;59.332;18.244;2023-10-31T03:26:27;99062.51;;;7.98;100.00
19789;BME280;10054;59.332;18.244;2023-10-31T03:28:56;99059.88;;;7.98;100.00
19789;BME280;10054;59.332;18.244;2023-10-31T03:31:27;99065.62;;;8.03;100.00
19789;BME280;10054;59.332;18.244;2023-10-31T03:33:56;99063.35;;;8.04;100.00
19789;BME280;10054;59.332;18.244;2023-10-31T03:36:24;99061.32;;;8.02;100.00
19789;BME280;10054;59.332;18.244;2023-10-31T03:38:53;99062.99;;;8.03;100.00
19789;BME280;10054;59.332;18.244;2023-10-31T03:41:22;99055.83;;;8.05;100.00
19789;BME280;10054;59.332;18.244;2023-10-31T03:43:51;99057.98;;;8.06;100.00
19789;BME280;10054;59.332;18.244;2023-10-31T03:46:20;99052.73;;;8.06;100.00
19789;BME280;10054;59.332;18.244;2023-10-31T03:48:49;99052.61;;;8.07;100.00
19789;BME280;10054;59.332;18.244;2023-10-31T03:51:18;99051.18;;;8.09;100.00
19789;BME280;10054;59.332;18.244;2023-10-31T03:53:47;99051.18;;;8.09;100.00
19789;BME280;10054;59.332;18.244;2023-10-31T03:56:17;99055.95;;;8.09;100.00
19789;BME280;10054;59.332;18.244;2023-10-31T03:58:45;99048.91;;;8.10;100.00
19789;BME280;10054;59.332;18.244;2023-10-31T04:01:14;99052.97;;;8.08;100.00
19789;BME280;10054;59.332;18.244;2023-10-31T04:03:44;99043.30;;;8.09;100.00
19789;BME280;10054;59.332;18.244;2023-10-31T04:06:13;99042.70;;;8.11;100.00
19789;BME280;10054;59.332;18.244;2023-10-31T04:08:43;99030.77;;;8.12;100.00
19789;BME280;10054;59.332;18.244;2023-10-31T04:11:12;99025.75;;;8.09;100.00
19789;BME280;10054;59.332;18.244;2023-10-31T04:13:41;99033.52;;;8.11;100.00
19789;BME280;10054;59.332;18.244;2023-10-31T04:16:09;99024.68;;;8.12;100.00
19789;BME280;10054;59.332;18.244;2023-10-31T04:18:38;99025.03;;;8.13;100.00
19789;BME280;10054;59.332;18.244;2023-10-31T04:21:06;99025.63;;;8.11;100.00
19789;BME280;10054;59.332;18.244;2023-10-31T04:23:35;99022.65;;;8.10;100.00
19789;BME280;10054;59.332;18.244;2023-10-31T04:26:04;99030.41;;;8.11;100.00
19789;BME280;10054;59.332;18.244;2023-10-31T04:28:33;99032.55;;;8.12;100.00
19789;BME280;10054;59.332;18.244;2023-10-31T04:31:01;99032.31;;;8.09;100.00
19789;BME280;10054;59.332;18.244;2023-10-31T04:33:30;99039.60;;;8.11;100.00
19789;BME280;10054;59.332;18.244;2023-10-31T04:35:58;99040.55;;;8.10;100.00
19789;BME280;10054;59.332;18.244;2023-10-31T04:38:31;99036.50;;;8.12;100.00
19789;BME280;10054;59.332;18.244;2023-10-31T04:40:59;99033.87;;;8.12;100.00
19789;BME280;10054;59.332;18.244;2023-10-31T04:43:28;99041.63;;;8.13;100.00
19789;BME280;10054;59.332;18.244;2023-10-31T04:45:56;99045.09;;;8.14;100.00
19789;BME280;10054;59.332;18.244;2023-10-31T04:48:25;99037.57;;;8.15;100.00
19789;BME280;10054;59.332;18.244;2023-10-31T04:50:53;99038.53;;;8.14;100.00
19789;BME280;10054;59.332;18.244;2023-10-31T04:53:24;99028.02;;;8.14;100.00
19789;BME280;10054;59.332;18.244;2023-10-31T04:55:52;99034.95;;;8.15;100.00
19789;BME280;10054;59.332;18.244;2023-10-31T04:58:21;99028.38;;;8.15;100.00
19789;BME280;10054;59.332;18.244;2023-10-31T05:00:49;99024.44;;;8.15;100.00
19789;BME280;10054;59.332;18.244;2023-10-31T05:03:19;99024.08;;;8.14;100.00
19789;BME280;10054;59.332;18.244;2023-10-31T05:05:48;99021.34;;;8.15;100.00
19789;BME280;10054;59.332;18.244;2023-10-31T05:08:17;99023.25;;;8.13;100.00
19789;BME280;10054;59.332;18.244;2023-10-31T05:10:45;99018.95;;;8.12;100.00
19789;BME280;10054;59.332;18.244;2023-10-31T05:13:15;99028.62;;;8.12;100.00
19789;BME280;10054;59.332;18.244;2023-10-31T05:15:43;99028.98;;;8.13;100.00
19789;BME280;10054;59.332;18.244;2023-10-31T05:18:12;99041.87;;;8.10;100.00
19789;BME280;10054;59.332;18.244;2023-10-31T05:20:41;99037.09;;;8.10;100.00
19789;BME280;10054;59.332;18.244;2023-10-31T05:23:09;99052.02;;;8.09;100.00
19789;BME280;10054;59.332;18.244;2023-10-31T05:25:38;99060.97;;;8.07;100.00
19789;BME280;10054;59.332;18.244;2023-10-31T05:28:07;99061.44;;;8.06;100.00
19789;BME280;10054;59.332;18.244;2023-10-31T05:30:35;99061.33;;;8.08;100.00
19789;BME280;10054;59.332;18.244;2023-10-31T05:33:04;99065.38;;;8.06;100.00
19789;BME280;10054;59.332;18.244;2023-10-31T05:35:34;99062.76;;;8.06;100.00
19789;BME280;10054;59.332;18.244;2023-10-31T05:38:02;99056.43;;;8.09;100.00
19789;BME280;10054;59.332;18.244;2023-10-31T05:40:31;99053.56;;;8.06;100.00
19789;BME280;10054;59.332;18.244;2023-10-31T05:43:01;99054.88;;;8.06;100.00
19789;BME280;10054;59.332;18.244;2023-10-31T05:45:30;99066.46;;;8.09;100.00
19789;BME280;10054;59.332;18.244;2023-10-31T05:48:00;99072.31;;;8.07;100.00
19789;BME280;10054;59.332;18.244;2023-10-31T05:50:28;99071.11;;;8.06;100.00
19789;BME280;10054;59.332;18.244;2023-10-31T05:52:58;99068.73;;;8.08;100.00
19789;BME280;10054;59.332;18.244;2023-10-31T05:55:26;99070.05;;;8.08;100.00
19789;BME280;10054;59.332;18.244;2023-10-31T05:57:55;99067.17;;;8.06;100.00
19789;BME280;10054;59.332;18.244;2023-10-31T06:00:24;99067.17;;;8.06;100.00
19789;BME280;10054;59.332;18.244;2023-10-31T06:02:53;99065.86;;;8.06;100.00
19789;BME280;10054;59.332;18.244;2023-10-31T06:05:22;99072.06;;;8.05;100.00
19789;BME280;10054;59.332;18.244;2023-10-31T06:07:50;99064.55;;;8.06;100.00
19789;BME280;10054;59.332;18.244;2023-10-31T06:10:19;99064.91;;;8.07;100.00
19789;BME280;10054;59.332;18.244;2023-10-31T06:12:49;99068.01;;;8.06;100.00
19789;BME280;10054;59.332;18.244;2023-10-31T06:15:17;99069.80;;;8.06;100.00
19789;BME280;10054;59.332;18.244;2023-10-31T06:17:46;99069.69;;;8.07;100.00
19789;BME280;10054;59.332;18.244;2023-10-31T06:20:14;99072.55;;;8.04;100.00
19789;BME280;10054;59.332;18.244;2023-10-31T06:22:43;99077.32;;;8.05;100.00
19789;BME280;10054;59.332;18.244;2023-10-31T06:25:12;99078.52;;;8.06;100.00
19789;BME280;10054;59.332;18.244;2023-10-31T06:27:40;99081.74;;;8.10;100.00
19789;BME280;10054;59.332;18.244;2023-10-31T06:30:10;99084.01;;;8.09;100.00
19789;BME280;10054;59.332;18.244;2023-10-31T06:32:38;99086.28;;;8.08;100.00
19789;BME280;10054;59.332;18.244;2023-10-31T06:35:09;99088.78;;;8.09;100.00
19789;BME280;10054;59.332;18.244;2023-10-31T06:37:37;99091.30;;;8.11;100.00
19789;BME280;10054;59.332;18.244;2023-10-31T06:40:07;99090.81;;;8.11;100.00
19789;BME280;10054;59.332;18.244;2023-10-31T06:42:38;99097.50;;;8.10;100.00
19789;BME280;10054;59.332;18.244;2023-10-31T06:45:07;99098.81;;;8.10;100.00
19789;BME280;10054;59.332;18.244;2023-10-31T06:47:36;99098.22;;;8.12;100.00
19789;BME280;10054;59.332;18.244;2023-10-31T06:50:08;99101.68;;;8.12;100.00
19789;BME280;10054;59.332;18.244;2023-10-31T06:52:35;99106.69;;;8.10;100.00
19789;BME280;10054;59.332;18.244;2023-10-31T06:55:04;99104.42;;;8.11;100.00
19789;BME280;10054;59.332;18.244;2023-10-31T06:57:33;99104.31;;;8.12;100.00
19789;BME280;10054;59.332;18.244;2023-10-31T07:00:02;99108.25;;;8.12;100.00
19789;BME280;10054;59.332;18.244;2023-10-31T07:02:30;99111.83;;;8.11;100.00
19789;BME280;10054;59.332;18.244;2023-10-31T07:04:59;99112.67;;;8.12;100.00
19789;BME280;10054;59.332;18.244;2023-10-31T07:07:27;99102.88;;;8.14;100.00
19789;BME280;10054;59.332;18.244;2023-10-31T07:09:56;99108.25;;;8.12;100.00
19789;BME280;10054;59.332;18.244;2023-10-31T07:12:25;99116.13;;;8.12;100.00
19789;BME280;10054;59.332;18.244;2023-10-31T07:14:53;99113.03;;;8.13;100.00
19789;BME280;10054;59.332;18.244;2023-10-31T07:17:22;99107.66;;;8.14;100.00
19789;BME280;10054;59.332;18.244;2023-10-31T07:19:50;99102.88;;;8.14;100.00
19789;BME280;10054;59.332;18.244;2023-10-31T07:22:19;99109.45;;;8.14;100.00
19789;BME280;10054;59.332;18.244;2023-10-31T07:24:47;99110.64;;;8.15;100.00
19789;BME280;10054;59.332;18.244;2023-10-31T07:27:16;99112.64;;;8.17;100.00
19789;BME280;10054;59.332;18.244;2023-10-31T07:29:45;99110.85;;;8.18;100.00
19789;BME280;10054;59.332;18.244;2023-10-31T07:32:14;99112.53;;;8.19;100.00
19789;BME280;10054;59.332;18.244;2023-10-31T07:34:42;99121.60;;;8.20;100.00
19789;BME280;10054;59.332;18.244;2023-10-31T07:37:11;99121.60;;;8.20;100.00
19789;BME280;10054;59.332;18.244;2023-10-31T07:39:40;99128.28;;;8.19;100.00
19789;BME280;10054;59.332;18.244;2023-10-31T07:42:09;99119.81;;;8.21;100.00
19789;BME280;10054;59.332;18.244;2023-10-31T07:44:37;99125.78;;;8.23;100.00
19789;BME280;10054;59.332;18.244;2023-10-31T07:47:06;99126.63;;;8.23;100.00
19789;BME280;10054;59.332;18.244;2023-10-31T07:49:35;99123.04;;;8.24;100.00
19789;BME280;10054;59.332;18.244;2023-10-31T07:52:04;99123.76;;;8.27;100.00
19789;BME280;10054;59.332;18.244;2023-10-31T07:54:32;99124.59;;;8.27;100.00
19789;BME280;10054;59.332;18.244;2023-10-31T07:57:01;99121.73;;;8.30;100.00
19789;BME280;10054;59.332;18.244;2023-10-31T07:59:29;99130.81;;;8.32;100.00
19789;BME280;10054;59.332;18.244;2023-10-31T08:01:59;99126.88;;;8.32;100.00
19789;BME280;10054;59.332;18.244;2023-10-31T08:04:28;99120.22;;;8.33;100.00
19789;BME280;10054;59.332;18.244;2023-10-31T08:07:00;99121.05;;;8.34;100.00
19789;BME280;10054;59.332;18.244;2023-10-31T08:09:29;99124.52;;;8.34;100.00
19789;BME280;10054;59.332;18.244;2023-10-31T08:11:58;99123.68;;;8.34;100.00
19789;BME280;10054;59.332;18.244;2023-10-31T08:14:27;99122.01;;;8.33;100.00
19789;BME280;10054;59.332;18.244;2023-10-31T08:16:55;99121.41;;;8.35;100.00
19789;BME280;10054;59.332;18.244;2023-10-31T08:19:24;99126.66;;;8.35;100.00
19789;BME280;10054;59.332;18.244;2023-10-31T08:21:52;99124.87;;;8.35;100.00
19789;BME280;10054;59.332;18.244;2023-10-31T08:24:21;99124.99;;;8.34;100.00
19789;BME280;10054;59.332;18.244;2023-10-31T08:26:50;99121.89;;;8.34;100.00
19789;BME280;10054;59.332;18.244;2023-10-31T08:29:18;99114.36;;;8.35;100.00
19789;BME280;10054;59.332;18.244;2023-10-31T08:31:47;99116.63;;;8.34;100.00
19789;BME280;10054;59.332;18.244;2023-10-31T08:34:16;99111.02;;;8.33;100.00
19789;BME280;10054;59.332;18.244;2023-10-31T08:36:44;99111.73;;;8.35;100.00
19789;BME280;10054;59.332;18.244;2023-10-31T08:39:13;99110.78;;;8.36;100.00
19789;BME280;10054;59.332;18.244;2023-10-31T08:41:57;99112.45;;;8.37;100.00
19789;BME280;10054;59.332;18.244;2023-10-31T08:44:28;99107.44;;;8.40;100.00
19789;BME280;10054;59.332;18.244;2023-10-31T08:46:56;99105.65;;;8.40;100.00
19789;BME280;10054;59.332;18.244;2023-10-31T08:49:25;99102.66;;;8.39;100.00
19789;BME280;10054;59.332;18.244;2023-10-31T08:51:53;99100.63;;;8.37;100.00
19789;BME280;10054;59.332;18.244;2023-10-31T08:54:23;99097.89;;;8.39;100.00
19789;BME280;10054;59.332;18.244;2023-10-31T08:56:51;99089.53;;;8.39;100.00
19789;BME280;10054;59.332;18.244;2023-10-31T08:59:20;99089.89;;;8.40;100.00
19789;BME280;10054;59.332;18.244;2023-10-31T09:01:48;99084.63;;;8.40;100.00
19789;BME280;10054;59.332;18.244;2023-10-31T09:04:17;99094.55;;;8.42;100.00
19789;BME280;10054;59.332;18.244;2023-10-31T09:06:46;99093.11;;;8.44;100.00
19789;BME280;10054;59.332;18.244;2023-10-31T09:09:14;99086.66;;;8.42;100.00
19789;BME280;10054;59.332;18.244;2023-10-31T09:11:43;99084.27;;;8.45;100.00
19789;BME280;10054;59.332;18.244;2023-10-31T09:14:11;99072.33;;;8.46;100.00
19789;BME280;10054;59.332;18.244;2023-10-31T09:16:40;99076.74;;;8.46;100.00
19789;BME280;10054;59.332;18.244;2023-10-31T09:19:08;99071.13;;;8.45;100.00
19789;BME280;10054;59.332;18.244;2023-10-31T09:21:37;99073.16;;;8.47;100.00
19789;BME280;10054;59.332;18.244;2023-10-31T09:24:07;99068.27;;;8.48;100.00
19789;BME280;10054;59.332;18.244;2023-10-31T09:26:35;99069.09;;;8.48;100.00
19789;BME280;10054;59.332;18.244;2023-10-31T09:29:05;99068.27;;;8.48;100.00
19789;BME280;10054;59.332;18.244;2023-10-31T09:31:33;99063.84;;;8.48;100.00
19789;BME280;10054;59.332;18.244;2023-10-31T09:34:02;99058.82;;;8.51;100.00
19789;BME280;10054;59.332;18.244;2023-10-31T09:36:34;99057.75;;;8.48;100.00
19789;BME280;10054;59.332;18.244;2023-10-31T09:39:03;99051.78;;;8.46;100.00
19789;BME280;10054;59.332;18.244;2023-10-31T09:41:32;99047.59;;;8.43;100.00
19789;BME280;10054;59.332;18.244;2023-10-31T09:44:00;99046.41;;;8.42;100.00
19789;BME280;10054;59.332;18.244;2023-10-31T09:46:29;99042.83;;;8.37;100.00
19789;BME280;10054;59.332;18.244;2023-10-31T09:48:58;99044.50;;;8.38;100.00
19789;BME280;10054;59.332;18.244;2023-10-31T09:51:28;99042.23;;;8.34;100.00
19789;BME280;10054;59.332;18.244;2023-10-31T09:53:58;99036.47;;;8.29;100.00
19789;BME280;10054;59.332;18.244;2023-10-31T09:56:28;99039.21;;;8.27;100.00
19789;BME280;10054;59.332;18.244;2023-10-31T09:59:02;99039.81;;;8.25;100.00
19789;BME280;10054;59.332;18.244;2023-10-31T10:01:30;99028.95;;;8.24;100.00
19789;BME280;10054;59.332;18.244;2023-10-31T10:03:59;99025.84;;;8.19;100.00
19789;BME280;10054;59.332;18.244;2023-10-31T10:06:28;99015.72;;;8.14;100.00
19789;BME280;10054;59.332;18.244;2023-10-31T10:08:56;99013.09;;;8.14;100.00
19789;BME280;10054;59.332;18.244;2023-10-31T10:11:25;99014.65;;;8.11;100.00
19789;BME280;10054;59.332;18.244;2023-10-31T10:13:57;99015.25;;;8.09;100.00
19789;BME280;10054;59.332;18.244;2023-10-31T10:16:32;99018.95;;;8.07;100.00
19789;BME280;10054;59.332;18.244;2023-10-31T10:19:21;99015.24;;;8.04;100.00
19789;BME280;10054;59.332;18.244;2023-10-31T10:21:57;99020.61;;;8.02;100.00
19789;BME280;10054;59.332;18.244;2023-10-31T10:24:26;99018.23;;;7.99;100.00
19789;BME280;10054;59.332;18.244;2023-10-31T10:26:55;99019.54;;;7.99;100.00
19789;BME280;10054;59.332;18.244;2023-10-31T10:29:24;99021.81;;;7.98;100.00
19789;BME280;10054;59.332;18.244;2023-10-31T10:31:54;99017.03;;;7.92;100.00
19789;BME280;10054;59.332;18.244;2023-10-31T10:34:22;99014.05;;;7.91;100.00
19789;BME280;10054;59.332;18.244;2023-10-31T10:36:53;99014.88;;;7.91;100.00
19789;BME280;10054;59.332;18.244;2023-10-31T10:39:24;99007.12;;;7.90;100.00
19789;BME280;10054;59.332;18.244;2023-10-31T10:41:54;99013.33;;;7.89;100.00
19789;BME280;10054;59.332;18.244;2023-10-31T10:44:34;99001.15;;;7.88;100.00
19789;BME280;10054;59.332;18.244;2023-10-31T10:47:04;99003.66;;;7.89;100.00
19789;BME280;10054;59.332;18.244;2023-10-31T10:49:36;98996.14;;;7.90;100.00
19789;BME280;10054;59.332;18.244;2023-10-31T10:52:33;98999.24;;;7.90;100.00
19789;BME280;10054;59.332;18.244;2023-10-31T10:55:11;98993.16;;;7.89;100.00
19789;BME280;10054;59.332;18.244;2023-10-31T10:57:42;98989.58;;;7.90;100.00
19789;BME280;10054;59.332;18.244;2023-10-31T11:00:11;98990.05;;;7.90;100.00
19789;BME280;10054;59.332;18.244;2023-10-31T11:02:41;98988.14;;;7.86;100.00
19789;BME280;10054;59.332;18.244;2023-10-31T11:05:11;98987.78;;;7.85;100.00
19789;BME280;10054;59.332;18.244;2023-10-31T11:07:40;98983.36;;;7.80;100.00
19789;BME280;10054;59.332;18.244;2023-10-31T11:10:10;98982.64;;;7.78;100.00
19789;BME280;10054;59.332;18.244;2023-10-31T11:12:39;98978.35;;;7.77;100.00
19789;BME280;10054;59.332;18.244;2023-10-31T11:15:11;98977.03;;;7.77;100.00
19789;BME280;10054;59.332;18.244;2023-10-31T11:17:43;98986.11;;;7.79;100.00
19789;BME280;10054;59.332;18.244;2023-10-31T11:20:14;98977.16;;;7.81;100.00
19789;BME280;10054;59.332;18.244;2023-10-31T11:22:45;98975.02;;;7.81;100.00
19789;BME280;10054;59.332;18.244;2023-10-31T11:25:20;98963.91;;;7.77;100.00
19789;BME280;10054;59.332;18.244;2023-10-31T11:27:52;98960.57;;;7.75;100.00
19789;BME280;10054;59.332;18.244;2023-10-31T11:30:33;98954.01;;;7.75;100.00
19789;BME280;10054;59.332;18.244;2023-10-31T11:33:02;98951.98;;;7.73;100.00
19789;BME280;10054;59.332;18.244;2023-10-31T11:35:38;98952.94;;;7.72;100.00
19789;BME280;10054;59.332;18.244;2023-10-31T11:38:09;98948.05;;;7.73;100.00
19789;BME280;10054;59.332;18.244;2023-10-31T11:43:19;98938.26;;;7.70;100.00
19789;BME280;10054;59.332;18.244;2023-10-31T11:45:48;98947.33;;;7.71;100.00
19789;BME280;10054;59.332;18.244;2023-10-31T11:48:17;98942.55;;;7.71;100.00
19789;BME280;10054;59.332;18.244;2023-10-31T11:50:45;98944.11;;;7.73;100.00
19789;BME280;10054;59.332;18.244;2023-10-31T11:53:15;98939.33;;;7.73;100.00
19789;BME280;10054;59.332;18.244;2023-10-31T11:55:47;98937.06;;;7.74;100.00
19789;BME280;10054;59.332;18.244;2023-10-31T11:58:24;98938.02;;;7.73;100.00
19789;BME280;10054;59.332;18.244;2023-10-31T12:01:05;98934.80;;;7.75;100.00
19789;BME280;10054;59.332;18.244;2023-10-31T12:03:42;98927.76;;;7.75;100.00
19789;BME280;10054;59.332;18.244;2023-10-31T12:06:16;98924.89;;;7.78;100.00
19789;BME280;10054;59.332;18.244;2023-10-31T12:08:46;98925.25;;;7.79;100.00
19789;BME280;10054;59.332;18.244;2023-10-31T12:11:17;98920.48;;;7.79;100.00
19789;BME280;10054;59.332;18.244;2023-10-31T12:13:59;98914.75;;;7.79;100.00
19789;BME280;10054;59.332;18.244;2023-10-31T12:16:30;98917.27;;;7.81;100.00
19789;BME280;10054;59.332;18.244;2023-10-31T12:19:01;98914.64;;;7.81;100.00
19789;BME280;10054;59.332;18.244;2023-10-31T12:21:47;98917.02;;;7.78;100.00
19789;BME280;10054;59.332;18.244;2023-10-31T12:24:18;98911.53;;;7.76;100.00
19789;BME280;10054;59.332;18.244;2023-10-31T12:26:47;98911.53;;;7.76;100.00
19789;BME280;10054;59.332;18.244;2023-10-31T12:29:18;98905.45;;;7.75;100.00
19789;BME280;10054;59.332;18.244;2023-10-31T12:31:51;98908.67;;;7.73;100.00
19789;BME280;10054;59.332;18.244;2023-10-31T12:34:22;98904.37;;;7.72;100.00
19789;BME280;10054;59.332;18.244;2023-10-31T12:36:52;98896.98;;;7.72;100.00
19789;BME280;10054;59.332;18.244;2023-10-31T12:39:26;98899.72;;;7.70;100.00
19789;BME280;10054;59.332;18.244;2023-10-31T12:41:55;98899.36;;;7.69;100.00
19789;BME280;10054;59.332;18.244;2023-10-31T12:44:26;98902.83;;;7.70;100.00
19789;BME280;10054;59.332;18.244;2023-10-31T12:46:56;98895.91;;;7.69;100.00
19789;BME280;10054;59.332;18.244;2023-10-31T12:49:24;98888.16;;;7.67;100.00
19789;BME280;10054;59.332;18.244;2023-10-31T12:51:57;98883.50;;;7.65;100.00
19789;BME280;10054;59.332;18.244;2023-10-31T12:54:36;98874.55;;;7.62;100.00
19789;BME280;10054;59.332;18.244;2023-10-31T12:57:09;98873.48;;;7.59;100.00
19789;BME280;10054;59.332;18.244;2023-10-31T12:59:33;98865.73;;;7.57;100.00
19789;BME280;10054;59.332;18.244;2023-10-31T13:02:04;98860.95;;;7.57;100.00
19789;BME280;10054;59.332;18.244;2023-10-31T13:04:34;98858.22;;;7.53;100.00